createdAt,value
2022-10-26T00:02:20.659Z,2.72
2022-10-26T00:04:46.947Z,2.20
2022-10-26T00:07:13.128Z,2.30
2022-10-26T00:09:39.349Z,2.60
2022-10-26T00:12:05.634Z,2.28
2022-10-26T00:14:31.816Z,2.28
2022-10-26T00:16:58.041Z,2.70
2022-10-26T00:19:24.455Z,2.80
2022-10-26T00:21:50.771Z,2.50
2022-10-26T00:26:48.181Z,2.63
2022-10-26T00:29:14.461Z,2.60
2022-10-26T00:31:40.665Z,2.22
2022-10-26T00:34:06.853Z,2.22
2022-10-26T00:36:33.035Z,2.20
2022-10-26T00:38:59.257Z,2.58
2022-10-26T00:41:27.180Z,2.28
2022-10-26T00:43:53.507Z,2.53
2022-10-26T00:46:21.774Z,2.20
2022-10-26T00:48:51.046Z,3.10
2022-10-26T00:51:22.832Z,2.28
2022-10-26T00:53:49.553Z,3.38
2022-10-26T00:56:15.914Z,2.40
2022-10-26T00:58:42.551Z,2.20
2022-10-26T01:01:08.835Z,2.50
2022-10-26T01:03:35.827Z,2.20
2022-10-26T01:06:03.118Z,2.35
2022-10-26T01:08:29.553Z,2.40
2022-10-26T01:10:57.230Z,2.28
2022-10-26T01:13:24.436Z,2.20
2022-10-26T01:15:56.546Z,2.42
2022-10-26T01:18:39.705Z,2.55
2022-10-26T01:21:13.159Z,2.10
2022-10-26T01:23:49.727Z,2.45
2022-10-26T01:26:24.804Z,2.72
2022-10-26T01:29:11.792Z,2.20
2022-10-26T01:31:41.575Z,2.35
2022-10-26T01:34:22.331Z,2.35
2022-10-26T01:37:00.459Z,2.60
2022-10-26T01:39:26.606Z,2.30
2022-10-26T01:41:56.164Z,2.15
2022-10-26T01:44:29.452Z,2.30
2022-10-26T01:46:58.065Z,2.40
2022-10-26T01:49:28.841Z,2.45
2022-10-26T01:51:55.026Z,2.05
2022-10-26T01:54:21.209Z,2.10
2022-10-26T01:56:49.508Z,1.80
2022-10-26T01:59:19.671Z,1.80
2022-10-26T02:01:48.801Z,2.38
2022-10-26T02:04:15.113Z,2.08
2022-10-26T02:06:53.703Z,2.00
2022-10-26T02:09:19.891Z,2.45
2022-10-26T02:11:48.021Z,2.28
2022-10-26T02:14:17.103Z,2.47
2022-10-26T02:16:52.227Z,1.88
2022-10-26T02:19:36.207Z,2.50
2022-10-26T02:22:05.916Z,2.20
2022-10-26T02:24:33.419Z,2.08
2022-10-26T02:27:00.243Z,2.00
2022-10-26T02:29:27.661Z,2.13
2022-10-26T02:31:55.076Z,2.30
2022-10-26T02:34:24.361Z,2.05
2022-10-26T02:36:52.079Z,2.67
2022-10-26T02:39:19.528Z,2.13
2022-10-26T02:41:46.999Z,2.00
2022-10-26T02:44:16.264Z,2.30
2022-10-26T02:46:43.564Z,2.03
2022-10-26T02:49:10.067Z,2.10
2022-10-26T02:54:24.270Z,2.53
2022-10-26T02:56:59.747Z,2.10
2022-10-26T02:59:27.842Z,1.80
2022-10-26T03:01:54.383Z,2.17
2022-10-26T03:04:20.762Z,2.20
2022-10-26T03:06:54.434Z,2.08
2022-10-26T03:09:23.459Z,2.15
2022-10-26T03:11:51.689Z,2.10
2022-10-26T03:14:18.016Z,2.00
2022-10-26T03:16:44.215Z,1.90
2022-10-26T03:19:10.626Z,1.90
2022-10-26T03:21:36.844Z,2.35
2022-10-26T03:24:03.122Z,1.95
2022-10-26T03:26:29.337Z,1.88
2022-10-26T03:28:55.624Z,2.72
2022-10-26T03:31:21.828Z,2.10
2022-10-26T03:33:48.034Z,2.10
2022-10-26T03:36:14.262Z,2.22
2022-10-26T03:38:40.463Z,2.00
2022-10-26T03:41:06.665Z,2.53
2022-10-26T03:43:32.943Z,2.08
2022-10-26T03:45:59.174Z,2.30
2022-10-26T03:48:25.433Z,2.35
2022-10-26T03:50:51.651Z,1.73
2022-10-26T03:53:17.904Z,1.80
2022-10-26T03:55:44.660Z,1.90
2022-10-26T03:58:10.843Z,1.63
2022-10-26T04:00:37.029Z,1.90
2022-10-26T04:03:03.301Z,2.15
2022-10-26T04:05:29.600Z,1.85
2022-10-26T04:07:56.517Z,2.03
2022-10-26T04:10:23.390Z,2.33
2022-10-26T04:12:49.595Z,1.95
2022-10-26T04:15:16.259Z,2.42
2022-10-26T04:17:42.466Z,2.40
2022-10-26T04:20:09.032Z,2.40
2022-10-26T04:22:36.372Z,2.25
2022-10-26T04:25:03.303Z,2.15
2022-10-26T04:27:29.466Z,1.70
2022-10-26T04:29:55.684Z,2.00
2022-10-26T04:32:21.867Z,2.10
2022-10-26T04:34:48.112Z,1.80
2022-10-26T04:37:14.332Z,2.10
2022-10-26T04:39:40.560Z,2.20
2022-10-26T04:42:06.904Z,2.00
2022-10-26T04:44:33.113Z,2.53
2022-10-26T04:46:59.328Z,2.45
2022-10-26T04:49:25.540Z,2.25
2022-10-26T04:51:51.723Z,2.63
2022-10-26T04:54:17.917Z,1.98
2022-10-26T04:56:44.150Z,1.80
2022-10-26T04:59:10.513Z,1.80
2022-10-26T05:01:36.828Z,2.08
2022-10-26T05:04:03.136Z,1.85
2022-10-26T05:06:30.155Z,2.00
2022-10-26T05:08:56.356Z,2.20
2022-10-26T05:11:22.616Z,2.15
2022-10-26T05:13:49.164Z,2.28
2022-10-26T05:16:16.255Z,2.10
2022-10-26T05:18:42.469Z,2.30
2022-10-26T05:21:08.639Z,2.47
2022-10-26T05:23:34.850Z,1.98
2022-10-26T05:26:01.042Z,2.13
2022-10-26T05:28:27.249Z,1.90
2022-10-26T05:30:53.669Z,1.80
2022-10-26T05:33:19.947Z,1.88
2022-10-26T05:35:46.253Z,1.90
2022-10-26T05:38:16.572Z,2.10
2022-10-26T05:40:49.324Z,1.80
2022-10-26T05:43:15.586Z,1.52
2022-10-26T05:45:41.793Z,2.20
2022-10-26T05:48:08.008Z,2.10
2022-10-26T05:50:34.278Z,1.92
2022-10-26T05:53:00.477Z,2.17
2022-10-26T05:55:26.759Z,2.33
2022-10-26T05:57:53.199Z,2.25
2022-10-26T06:00:20.664Z,2.10
2022-10-26T06:03:05.488Z,2.35
2022-10-26T06:05:34.248Z,2.50
2022-10-26T06:08:00.602Z,2.40
2022-10-26T06:10:27.093Z,2.40
2022-10-26T06:12:53.425Z,2.15
2022-10-26T06:15:20.806Z,2.30
2022-10-26T06:17:53.748Z,3.08
2022-10-26T06:20:36.154Z,2.58
2022-10-26T06:23:29.019Z,2.90
2022-10-26T06:26:01.511Z,2.80
2022-10-26T06:28:36.656Z,2.22
2022-10-26T06:31:02.917Z,3.28
2022-10-26T06:33:30.432Z,2.95
2022-10-26T06:36:04.587Z,2.15
2022-10-26T06:38:32.711Z,2.50
2022-10-26T06:40:59.773Z,2.55
2022-10-26T06:43:27.252Z,3.22
2022-10-26T06:46:00.651Z,2.78
2022-10-26T06:48:29.322Z,3.80
2022-10-26T06:50:55.857Z,2.97
2022-10-26T06:56:06.082Z,2.90
2022-10-26T06:58:34.407Z,2.40
2022-10-26T07:01:00.670Z,2.88
2022-10-26T07:03:27.060Z,2.35
2022-10-26T07:05:53.379Z,2.80
2022-10-26T07:08:19.630Z,2.45
2022-10-26T07:10:48.935Z,3.35
2022-10-26T07:13:15.201Z,3.00
2022-10-26T07:15:42.890Z,3.35
2022-10-26T07:18:09.168Z,3.17
2022-10-26T07:20:36.748Z,3.00
2022-10-26T07:23:03.076Z,3.00
2022-10-26T07:25:29.285Z,3.60
2022-10-26T07:27:59.234Z,3.00
2022-10-26T07:30:25.907Z,4.65
2022-10-26T07:32:58.337Z,3.08
2022-10-26T07:35:24.558Z,3.05
2022-10-26T07:37:50.807Z,3.03
2022-10-26T07:40:17.036Z,2.95
2022-10-26T07:42:46.859Z,3.70
2022-10-26T07:45:14.152Z,3.30
2022-10-26T07:47:40.400Z,2.90
2022-10-26T07:50:08.386Z,3.00
2022-10-26T07:52:36.883Z,3.28
2022-10-26T07:55:03.113Z,2.97
2022-10-26T07:57:29.312Z,3.05
2022-10-26T07:59:55.626Z,3.10
2022-10-26T08:02:21.868Z,3.63
2022-10-26T08:04:48.050Z,3.30
2022-10-26T08:07:14.275Z,2.80
2022-10-26T08:09:40.461Z,3.13
2022-10-26T08:12:06.733Z,3.05
2022-10-26T08:14:32.928Z,3.13
2022-10-26T08:16:59.123Z,2.90
2022-10-26T08:19:25.329Z,3.83
2022-10-26T08:21:51.533Z,3.17
2022-10-26T08:24:17.783Z,3.55
2022-10-26T08:26:44.009Z,2.85
2022-10-26T08:29:10.199Z,2.60
2022-10-26T08:31:36.446Z,2.65
2022-10-26T08:34:04.313Z,3.50
2022-10-26T08:36:30.681Z,3.00
2022-10-26T08:38:57.129Z,2.97
2022-10-26T08:41:43.681Z,2.30
2022-10-26T08:44:29.071Z,2.58
2022-10-26T08:46:58.599Z,2.83
2022-10-26T08:49:27.027Z,2.47
2022-10-26T08:51:55.801Z,2.63
2022-10-26T08:54:21.948Z,3.00
2022-10-26T08:56:54.104Z,2.40
2022-10-26T08:59:40.609Z,3.17
2022-10-26T09:02:13.608Z,2.97
2022-10-26T09:04:40.010Z,2.80
2022-10-26T09:07:06.198Z,2.50
2022-10-26T09:09:44.747Z,2.63
2022-10-26T09:12:14.870Z,3.00
2022-10-26T09:14:53.275Z,4.85
2022-10-26T09:17:38.213Z,3.78
2022-10-26T09:20:04.375Z,3.47
2022-10-26T09:22:49.381Z,2.70
2022-10-26T09:25:15.780Z,2.40
2022-10-26T09:27:47.322Z,2.58
2022-10-26T09:30:15.018Z,2.47
2022-10-26T09:32:46.545Z,2.72
2022-10-26T09:35:21.244Z,2.63
2022-10-26T09:37:59.086Z,2.58
2022-10-26T09:40:34.203Z,2.25
2022-10-26T09:43:03.152Z,2.78
2022-10-26T09:45:34.331Z,2.30
2022-10-26T09:48:06.741Z,2.17
2022-10-26T09:50:38.398Z,2.20
2022-10-26T09:53:04.978Z,2.15
2022-10-26T09:55:31.937Z,2.13
2022-10-26T09:58:01.057Z,1.95
2022-10-26T10:00:28.559Z,2.20
2022-10-26T10:02:56.524Z,2.03
2022-10-26T10:05:27.541Z,1.80
2022-10-26T10:08:14.806Z,1.83
2022-10-26T10:10:56.097Z,2.38
2022-10-26T10:15:53.412Z,2.50
2022-10-26T10:20:51.087Z,1.83
2022-10-26T10:23:26.942Z,2.10
2022-10-26T10:26:11.010Z,2.38
2022-10-26T10:28:37.768Z,2.35
2022-10-26T10:31:05.396Z,2.30
2022-10-26T10:33:33.516Z,1.88
2022-10-26T10:36:00.293Z,1.98
2022-10-26T10:38:26.644Z,2.10
2022-10-26T10:40:58.032Z,1.30
2022-10-26T10:43:25.386Z,1.73
2022-10-26T10:45:55.790Z,1.85
2022-10-26T10:48:27.372Z,1.80
2022-10-26T10:50:59.020Z,1.48
2022-10-26T10:53:31.123Z,1.40
2022-10-26T10:56:00.153Z,2.03
2022-10-26T10:58:37.192Z,1.63
2022-10-26T11:01:03.888Z,1.80
2022-10-26T11:03:39.152Z,1.85
2022-10-26T11:06:25.694Z,1.35
2022-10-26T11:08:51.912Z,1.73
2022-10-26T11:11:36.221Z,1.33
2022-10-26T11:14:05.525Z,1.48
2022-10-26T11:16:37.097Z,1.65
2022-10-26T11:19:22.261Z,1.50
2022-10-26T11:21:50.502Z,1.20
2022-10-26T11:24:39.721Z,1.10
2022-10-26T11:27:13.138Z,1.27
2022-10-26T11:29:45.940Z,1.00
2022-10-26T11:32:25.640Z,1.20
2022-10-26T11:34:51.874Z,1.00
2022-10-26T11:37:25.560Z,1.23
2022-10-26T11:40:23.957Z,1.25
2022-10-26T11:42:52.427Z,1.10
2022-10-26T11:45:32.194Z,0.90
2022-10-26T11:48:12.268Z,1.08
2022-10-26T11:50:44.256Z,2.22
2022-10-26T11:53:13.022Z,1.25
2022-10-26T11:55:40.199Z,1.17
2022-10-26T11:58:08.551Z,0.88
2022-10-26T12:00:35.687Z,1.10
2022-10-26T12:03:14.992Z,1.02
2022-10-26T12:05:41.144Z,0.60
2022-10-26T12:08:20.207Z,1.10
2022-10-26T12:10:49.547Z,0.98
2022-10-26T12:13:44.860Z,0.82
2022-10-26T12:16:17.864Z,0.68
2022-10-26T12:18:55.504Z,0.80
2022-10-26T12:21:24.892Z,0.70
2022-10-26T12:23:55.570Z,0.95
2022-10-26T12:26:24.500Z,0.70
2022-10-26T12:28:59.607Z,0.82
2022-10-26T12:31:37.798Z,0.80
2022-10-26T12:34:22.866Z,0.95
2022-10-26T12:36:55.181Z,0.75
2022-10-26T12:39:30.404Z,0.80
2022-10-26T12:41:57.953Z,0.80
2022-10-26T12:44:42.523Z,0.90
2022-10-26T12:47:09.742Z,0.77
2022-10-26T12:49:55.150Z,0.98
2022-10-26T12:52:22.649Z,0.90
2022-10-26T12:55:09.135Z,0.75
2022-10-26T12:57:51.339Z,0.80
2022-10-26T13:00:18.734Z,0.80
2022-10-26T13:03:03.857Z,0.77
2022-10-26T13:05:33.143Z,0.63
2022-10-26T13:08:07.861Z,0.82
2022-10-26T13:10:34.722Z,1.10
2022-10-26T13:13:02.747Z,0.80
2022-10-26T13:15:31.042Z,1.00
2022-10-26T13:17:59.191Z,0.82
2022-10-26T13:20:25.576Z,0.75
2022-10-26T13:22:52.301Z,0.93
2022-10-26T13:25:23.474Z,0.90
2022-10-26T13:27:58.979Z,0.95
2022-10-26T13:30:38.576Z,1.13
2022-10-26T13:33:08.177Z,1.00
2022-10-26T13:35:34.430Z,1.08
2022-10-26T13:38:06.750Z,0.98
2022-10-26T13:40:36.412Z,1.00
2022-10-26T13:43:04.175Z,1.20
2022-10-26T13:45:31.724Z,0.80
2022-10-26T13:48:08.333Z,1.00
2022-10-26T13:50:40.960Z,1.05
2022-10-26T13:53:08.527Z,0.88
2022-10-26T13:55:50.464Z,1.30
2022-10-26T13:58:31.382Z,0.82
2022-10-26T14:01:00.905Z,0.88
2022-10-26T14:03:27.574Z,0.90
2022-10-26T14:05:53.887Z,0.85
2022-10-26T14:08:20.727Z,0.80
2022-10-26T14:10:48.455Z,0.80
2022-10-26T14:13:16.833Z,0.90
2022-10-26T14:15:44.268Z,0.93
2022-10-26T14:18:17.982Z,1.13
2022-10-26T14:20:48.143Z,0.93
2022-10-26T14:23:34.055Z,0.82
2022-10-26T14:26:00.577Z,1.17
2022-10-26T14:28:28.481Z,1.00
2022-10-26T14:30:54.843Z,1.00
2022-10-26T14:33:26.052Z,0.68
2022-10-26T14:35:52.367Z,0.70
2022-10-26T14:38:26.351Z,0.90
2022-10-26T14:40:54.790Z,1.00
2022-10-26T14:43:22.499Z,0.90
2022-10-26T14:45:50.347Z,0.85
2022-10-26T14:48:25.669Z,0.82
2022-10-26T14:51:10.751Z,0.80
2022-10-26T14:53:38.610Z,0.90
2022-10-26T14:56:05.927Z,0.75
2022-10-26T14:58:32.943Z,0.77
2022-10-26T15:01:36.470Z,0.70
2022-10-26T15:04:07.023Z,1.00
2022-10-26T15:06:34.121Z,0.88
2022-10-26T15:09:00.939Z,0.90
2022-10-26T15:11:27.720Z,1.00
2022-10-26T15:13:54.501Z,0.93
2022-10-26T15:16:40.954Z,0.93
2022-10-26T15:19:08.771Z,1.27
2022-10-26T15:21:34.935Z,1.27
2022-10-26T15:24:01.807Z,1.08
2022-10-26T15:26:28.567Z,1.10
2022-10-26T15:28:55.047Z,1.30
2022-10-26T15:31:21.260Z,1.27
2022-10-26T15:33:50.460Z,1.08
2022-10-26T15:36:26.876Z,1.20
2022-10-26T15:38:53.465Z,1.00
2022-10-26T15:41:29.974Z,1.10
2022-10-26T15:43:57.552Z,1.02
2022-10-26T15:46:24.336Z,1.30
2022-10-26T15:48:55.408Z,1.52
2022-10-26T15:51:21.613Z,1.73
2022-10-26T15:53:47.816Z,1.52
2022-10-26T15:56:18.304Z,1.70
2022-10-26T15:58:44.991Z,1.60
2022-10-26T16:01:16.455Z,1.98
2022-10-26T16:03:43.008Z,1.60
2022-10-26T16:06:13.747Z,2.00
2022-10-26T16:08:39.972Z,1.70
2022-10-26T16:11:06.230Z,2.15
2022-10-26T16:13:32.542Z,2.38
2022-10-26T16:15:58.765Z,2.10
2022-10-26T16:18:24.958Z,2.20
2022-10-26T16:20:51.155Z,2.20
2022-10-26T16:23:17.382Z,2.13
2022-10-26T16:25:45.492Z,1.50
2022-10-26T16:28:16.234Z,1.73
2022-10-26T16:30:43.322Z,1.90
2022-10-26T16:33:09.572Z,1.67
2022-10-26T16:35:35.805Z,1.80
2022-10-26T16:38:01.990Z,1.55
2022-10-26T16:40:28.171Z,1.42
2022-10-26T16:42:54.447Z,1.80
2022-10-26T16:45:20.683Z,1.85
2022-10-26T16:47:47.091Z,1.88
2022-10-26T16:50:14.271Z,2.33
2022-10-26T16:52:40.714Z,2.00
2022-10-26T16:55:07.729Z,2.20
2022-10-26T16:57:35.051Z,2.13
2022-10-26T17:00:01.423Z,1.80
2022-10-26T17:02:27.698Z,2.28
2022-10-26T17:04:54.066Z,2.10
2022-10-26T17:07:20.374Z,2.05
2022-10-26T17:09:46.564Z,1.80
2022-10-26T17:12:12.890Z,1.95
2022-10-26T17:14:42.710Z,2.08
2022-10-26T17:17:12.028Z,2.50
2022-10-26T17:19:38.266Z,2.53
2022-10-26T17:22:07.843Z,2.22
2022-10-26T17:24:36.124Z,2.60
2022-10-26T17:27:02.494Z,2.30
2022-10-26T17:29:29.582Z,2.63
2022-10-26T17:31:55.819Z,2.42
2022-10-26T17:34:22.032Z,2.72
2022-10-26T17:36:48.250Z,2.35
2022-10-26T17:39:14.543Z,2.70
2022-10-26T17:41:40.735Z,2.65
2022-10-26T17:44:06.963Z,2.60
2022-10-26T17:46:34.050Z,3.40
2022-10-26T17:49:00.790Z,3.85
2022-10-26T17:51:27.896Z,3.88
2022-10-26T17:53:54.820Z,3.42
2022-10-26T17:56:25.880Z,3.65
2022-10-26T17:58:53.412Z,3.20
2022-10-26T18:01:19.976Z,3.40
2022-10-26T18:03:46.510Z,3.85
2022-10-26T18:06:12.962Z,3.42
2022-10-26T18:08:39.293Z,3.28
2022-10-26T18:11:06.525Z,2.47
2022-10-26T18:13:33.968Z,3.08
2022-10-26T18:16:04.521Z,2.33
2022-10-26T18:18:30.798Z,2.28
2022-10-26T18:21:00.888Z,2.35
2022-10-26T18:23:27.143Z,2.15
2022-10-26T18:26:00.602Z,2.95
2022-10-26T18:28:26.950Z,2.17
2022-10-26T18:30:53.185Z,2.05
2022-10-26T18:33:19.398Z,2.33
2022-10-26T18:35:46.546Z,2.10
2022-10-26T18:38:12.766Z,2.20
2022-10-26T18:40:38.987Z,1.90
2022-10-26T18:43:05.163Z,2.20
2022-10-26T18:45:31.372Z,1.90
2022-10-26T18:47:57.572Z,2.00
2022-10-26T18:50:23.803Z,2.17
2022-10-26T18:52:51.175Z,2.00
2022-10-26T18:55:17.637Z,2.10
2022-10-26T18:57:43.844Z,1.95
2022-10-26T19:00:10.568Z,1.80
2022-10-26T19:02:36.746Z,2.30
2022-10-26T19:05:02.939Z,2.72
2022-10-26T19:07:29.774Z,2.47
2022-10-26T19:09:55.987Z,2.80
2022-10-26T19:12:22.219Z,2.60
2022-10-26T19:14:48.446Z,2.60
2022-10-26T19:17:14.790Z,2.88
2022-10-26T19:19:41.003Z,2.83
2022-10-26T19:22:07.207Z,2.55
2022-10-26T19:24:33.548Z,3.03
2022-10-26T19:26:59.959Z,3.28
2022-10-26T19:29:26.151Z,2.88
2022-10-26T19:31:53.161Z,3.47
2022-10-26T19:34:19.539Z,3.10
2022-10-26T19:36:46.775Z,3.22
2022-10-26T19:39:14.080Z,3.40
2022-10-26T19:41:40.351Z,2.70
2022-10-26T19:44:07.655Z,2.78
2022-10-26T19:46:33.888Z,3.00
2022-10-26T19:49:01.341Z,2.80
2022-10-26T19:51:29.275Z,2.38
2022-10-26T19:53:57.889Z,2.50
2022-10-26T19:56:26.781Z,2.38
2022-10-26T19:58:54.111Z,2.30
2022-10-26T20:01:20.383Z,2.28
2022-10-26T20:03:46.650Z,2.80
2022-10-26T20:06:13.115Z,2.25
2022-10-26T20:08:40.245Z,2.42
2022-10-26T20:11:09.089Z,2.75
2022-10-26T20:13:38.500Z,2.75
2022-10-26T20:16:05.085Z,2.53
2022-10-26T20:18:31.287Z,2.50
2022-10-26T20:20:57.571Z,2.20
2022-10-26T20:23:23.822Z,2.30
2022-10-26T20:25:50.925Z,2.38
2022-10-26T20:28:17.905Z,2.38
2022-10-26T20:30:44.636Z,2.45
2022-10-26T20:33:11.426Z,2.50
2022-10-26T20:35:37.761Z,1.70
2022-10-26T20:38:04.705Z,2.22
2022-10-26T20:40:31.232Z,2.47
2022-10-26T20:42:57.684Z,2.30
2022-10-26T20:45:30.963Z,2.40
2022-10-26T20:47:57.983Z,2.25
2022-10-26T20:50:25.258Z,2.22
2022-10-26T20:52:56.429Z,2.13
2022-10-26T20:55:42.758Z,2.60
2022-10-26T20:58:14.311Z,2.35
2022-10-26T21:03:08.059Z,2.38
2022-10-26T21:05:34.864Z,2.10
2022-10-26T21:08:01.162Z,2.35
2022-10-26T21:10:28.846Z,2.40
2022-10-26T21:12:55.288Z,2.30
2022-10-26T21:15:21.508Z,2.38
2022-10-26T21:17:47.963Z,2.33
2022-10-26T21:20:14.308Z,2.70
2022-10-26T21:22:40.501Z,2.47
2022-10-26T21:25:06.853Z,2.88
2022-10-26T21:27:33.347Z,2.25
2022-10-26T21:29:59.575Z,2.92
2022-10-26T21:32:25.778Z,2.42
2022-10-26T21:34:51.976Z,2.42
2022-10-26T21:37:18.230Z,2.95
2022-10-26T21:39:44.432Z,2.60
2022-10-26T21:42:10.652Z,2.47
2022-10-26T21:44:41.255Z,1.98
2022-10-26T21:47:08.149Z,2.40
2022-10-26T21:49:34.355Z,2.45
2022-10-26T21:52:00.640Z,2.38
2022-10-26T21:54:26.855Z,1.73
2022-10-26T21:56:53.099Z,2.13
2022-10-26T21:59:19.360Z,2.10
2022-10-26T22:01:45.631Z,2.30
2022-10-26T22:04:11.952Z,2.38
2022-10-26T22:06:38.179Z,1.92
2022-10-26T22:09:04.468Z,2.40
2022-10-26T22:11:31.379Z,2.20
2022-10-26T22:13:57.590Z,2.10
2022-10-26T22:16:25.053Z,2.55
2022-10-26T22:18:52.380Z,2.35
2022-10-26T22:21:19.664Z,2.28
2022-10-26T22:23:45.946Z,2.75
2022-10-26T22:26:17.078Z,2.17
2022-10-26T22:28:44.120Z,2.10
2022-10-26T22:31:12.435Z,2.13
2022-10-26T22:33:38.633Z,2.55
2022-10-26T22:36:05.589Z,2.78
2022-10-26T22:38:31.830Z,2.38
2022-10-26T22:40:58.034Z,2.22
2022-10-26T22:43:24.243Z,2.20
2022-10-26T22:46:04.191Z,2.55
2022-10-26T22:48:30.508Z,2.80
2022-10-26T22:50:56.960Z,2.22
2022-10-26T22:53:23.246Z,2.25
2022-10-26T22:55:49.628Z,2.70
2022-10-26T22:58:16.393Z,2.55
2022-10-26T23:00:42.774Z,2.53
2022-10-26T23:03:09.017Z,2.75
2022-10-26T23:05:35.243Z,2.95
2022-10-26T23:08:01.443Z,2.80
2022-10-26T23:10:27.858Z,2.47
2022-10-26T23:12:54.190Z,4.03
2022-10-26T23:15:20.498Z,3.08
2022-10-26T23:17:46.716Z,4.15
2022-10-26T23:20:12.908Z,3.17
2022-10-26T23:22:39.078Z,3.20
2022-10-26T23:25:05.494Z,3.42
2022-10-26T23:27:31.686Z,2.95
2022-10-26T23:29:57.872Z,2.88
2022-10-26T23:32:24.054Z,2.60
2022-10-26T23:34:50.296Z,3.10
2022-10-26T23:37:19.346Z,2.45
2022-10-26T23:39:45.650Z,3.22
2022-10-26T23:42:11.902Z,2.90
2022-10-26T23:44:38.135Z,3.10
2022-10-26T23:47:04.493Z,3.30
2022-10-26T23:49:30.711Z,3.17
2022-10-26T23:51:56.899Z,3.10
2022-10-26T23:54:23.116Z,3.38
2022-10-26T23:56:49.291Z,3.05
2022-10-26T23:59:15.680Z,3.13
